Friday, January 30, 2015
10:53 UTC
  |  Log In   |  Register Free
Airport Search:

Tucson International Airport
(KTUS)

FAA data valid effective January 08, 2015 - March 05, 2015 (unless otherwise noted).

 
 
 
 
 
 
 
 
 
 
 
 
 
 

Current Aviation Weather for Tucson International Airport (KTUS)

The most recent METAR observation for KTUS was updated at: 1020
METAR Summary (Translated METAR)
KTUS
300953Z 12006KT 10SM -RA BKN070 OVC085 14/11 A3000 RMK AO2 SLP130 P0002 T01440111
KDMA
301008Z AUTO 09005KT 9SM R12/5500FT -RA FEW039 SCT060 14/12 A2997 RMK AO2
(4.2 nm NE from KTUS)
KRYN
300245Z 29008KT 10SM BKN080 14/12 A3010
(12 nm NW from KTUS)
TAF Summary (Translated TAF)
KTUS
300805Z 3008/3106 13015G23KT P6SM VCSH SCT070 OVC090 TEMPO 3008/3010 -SHRA BKN050 OVC070 FM301000 12011KT P6SM -SHRA SCT050 OVC080 FM301500 09011KT P6SM -SHRA SCT035 OVC050 FM310300 14007KT P6SM -SHRA SCT025 OVC040
KDMA
(4.2 nm NE from KTUS)
3005/3111 30009KT 9999 VCSH SCT090 OVC120 QNH3003INS TEMPO 3005/3007 14012G22KT 4800 SHRA BKN040 TEMPO 3010/3012 13020G27KT 9999 BKN040 520005 BECMG 3021/3022 13009KT 9000 -SHRA BKN040 OVC060 QNH3008INS TX16/3021Z TN11/3111Z AMD300515
  Airport Weather Conditions for KTUS

 Current Weather at TUS
58° F
Light Rain
Southeast winds at 6.9 mph
TUS NOAA Radar

Pressure: 30.00 in
Humidity: 81%
Wind: Southeast at 6.9 MPH (6 KT)
Dew Point: 52.0°F
Visibility: 10.00 mi


Airport Weather Forecast for KTUS

Translated METAR and TAF for KTUS
Translated METAR for KTUS (1054 UTC 30 January 2015)
found at http://aviationweather.gov/adds/metars/
 
METAR text: KTUS 300953Z 12006KT 10SM -RA BKN070 OVC085 14/11 A3000 RMK AO2 SLP130 P0002 T01440111
Conditions at: KTUS (TUCSON , AZ, US) observed 0953 UTC 30 January 2015
Temperature: 14.4°C (58°F)
Dewpoint: 11.1°C (52°F) [RH = 81%]
Pressure (altimeter): 30.00 inches Hg (1016.0 mb)
[Sea-level pressure: 1013.0 mb]
Winds: from the ESE (120 degrees) at 7 MPH (6 knots; 3.1 m/s)
Visibility: 10 or more miles (16+ km)
Ceiling: 7000 feet AGL
Clouds: broken clouds at 7000 feet AGL
overcast cloud deck at 8500 feet AGL
Weather: -RA  (light rain)
Translated TAF for KTUS
Forecast for: KTUS (TUCSON , AZ, US)
TAF Text: KTUS 300805Z 3008/3106 13015G23KT P6SM VCSH SCT070 OVC090
Forecast period: 0800 to 1000 UTC 30 January 2015
Forecast type: FROM: standard forecast or significant change
Winds: from the SE (130 degrees) at 17 MPH (15 knots; 7.8 m/s)
gusting to 26 MPH (23 knots; 12.0 m/s)
Visibility: 6 or more miles (10+ km)
Ceiling: 9000 feet AGL
Clouds: scattered clouds at 7000 feet AGL
overcast cloud deck at 9000 feet AGL
Weather: VCSH  (showers in vicinity)
TAF Text: TEMPO 3008/3010 -SHRA BKN050 OVC070
Forecast period: 0800 to 1000 UTC 30 January 2015
Forecast type: TEMPORARY: The following changes expected for less than half the time period
Ceiling: 5000 feet AGL
Clouds: broken clouds at 5000 feet AGL
overcast cloud deck at 7000 feet AGL
Weather: -SHRA  (light rain showers)
TAF Text: FM301000 12011KT P6SM -SHRA SCT050 OVC080
Forecast period: 1000 to 1500 UTC 30 January 2015
Forecast type: FROM: standard forecast or significant change
Winds: from the ESE (120 degrees) at 13 MPH (11 knots; 5.7 m/s)
Visibility: 6 or more miles (10+ km)
Ceiling: 8000 feet AGL
Clouds: scattered clouds at 5000 feet AGL
overcast cloud deck at 8000 feet AGL
Weather: -SHRA  (light rain showers)
TAF Text: FM301500 09011KT P6SM -SHRA SCT035 OVC050
Forecast period: 1500 UTC 30 January 2015 to 0300 UTC 31 January 2015
Forecast type: FROM: standard forecast or significant change
Winds: from the E (90 degrees) at 13 MPH (11 knots; 5.7 m/s)
Visibility: 6 or more miles (10+ km)
Ceiling: 5000 feet AGL
Clouds: scattered clouds at 3500 feet AGL
overcast cloud deck at 5000 feet AGL
Weather: -SHRA  (light rain showers)
TAF Text: FM310300 14007KT P6SM -SHRA SCT025 OVC040
Forecast period: 0300 to 0600 UTC 31 January 2015
Forecast type: FROM: standard forecast or significant change
Winds: from the SE (140 degrees) at 8 MPH (7 knots; 3.6 m/s)
Visibility: 6 or more miles (10+ km)
Ceiling: 4000 feet AGL
Clouds: scattered clouds at 2500 feet AGL
overcast cloud deck at 4000 feet AGL
Weather: -SHRA  (light rain showers)

Find All Airport Services Find A Hotel Find A Rental Car Find A Golf Course Find A Restaurant $100 Hamburger



FBO's on the Field
FBO Company Facility Photos Services Transportation Aviation Fuel Prices: Prices include tax
Catering Weather Repair Courtesy Rental Type 100LL JetA JetA+ MOGAS 8087
 
Bombardier Aerospace

Bombardier Aerospace logo
This FBO has not yet been rated
FS:
Last Updated: Dec-30
Login to update fuel prices
SS:
Contact Bombardier AerospaceMore FBO Information
 
Atlantic Aviation - TUS

Currently rated 4.6 by 2 people
FS:Independent
Last Updated: Jan-29
Login to update fuel prices
SS:
Contact Atlantic Aviation - TUSMore FBO Information
 
Million Air Tucson

Currently rated 2.7 by 4 people
FS:Independent
Last Updated: Jan-21
Login to update fuel prices
SS:
Contact Million Air TucsonMore FBO Information
 
Premier Aviation (Million Air)

This FBO has not yet been rated
FS:Independent
Last Updated: Jan-21
Login to update fuel prices
SS:
Contact Premier Aviation (Million Air)More FBO Information
 
Tucson Jet Center

Currently rated 4.4 by 3 people
FS:Independent
Last Updated: Jan-07
Login to update fuel prices
SS:
Contact Tucson Jet CenterMore FBO Information
 
Velocity Air Inc.

This FBO has not yet been rated
FS:Ascent
Last Updated: Jan-22
Login to update fuel prices
SS:
Contact Velocity Air Inc.More FBO Information
 
Add another FBO Facility Photos Catering Weather Repair Courtesy Rental Type 100LL JetA JetA+ MOGAS 8087
Services Transportation Aviation Fuel Prices: Prices include tax


model-print
model-print
model-print
model-print